createdAt,value
2024-01-01T00:00:36.536Z,60.80
2024-01-01T00:01:36.398Z,69.50
2024-01-01T00:02:36.418Z,51.80
2024-01-01T00:03:36.344Z,50.80
2024-01-01T00:04:36.380Z,57.60
2024-01-01T00:05:36.354Z,55.00
2024-01-01T00:06:36.471Z,46.10
2024-01-01T00:07:36.399Z,49.10
2024-01-01T00:08:36.339Z,49.30
2024-01-01T00:09:36.329Z,42.60
2024-01-01T00:10:36.349Z,49.90
2024-01-01T00:11:36.302Z,43.70
2024-01-01T00:12:36.399Z,40.50
2024-01-01T00:13:36.246Z,37.10
2024-01-01T00:14:36.261Z,37.60
2024-01-01T00:15:36.288Z,35.00
2024-01-01T00:16:36.267Z,34.70
2024-01-01T00:17:36.289Z,36.80
2024-01-01T00:18:36.417Z,29.80
2024-01-01T00:19:36.261Z,29.60
2024-01-01T00:20:36.179Z,28.60
2024-01-01T00:21:36.268Z,30.00
2024-01-01T00:22:36.192Z,27.60
2024-01-01T00:23:36.191Z,26.30
2024-01-01T00:24:36.277Z,24.90
2024-01-01T00:25:36.272Z,25.00
2024-01-01T00:26:36.211Z,23.20
2024-01-01T00:27:36.169Z,23.40
2024-01-01T00:28:36.135Z,22.90
2024-01-01T00:29:37.632Z,25.00
2024-01-01T00:30:36.274Z,25.10
2024-01-01T00:31:36.113Z,21.80
2024-01-01T00:32:37.747Z,22.80
2024-01-01T00:33:36.133Z,22.50
2024-01-01T00:34:36.237Z,21.20
2024-01-01T00:35:36.071Z,22.20
2024-01-01T00:36:36.137Z,22.70
2024-01-01T00:37:36.100Z,21.70
2024-01-01T00:38:36.045Z,21.80
2024-01-01T00:39:36.078Z,21.40
2024-01-01T00:40:36.071Z,22.30
2024-01-01T00:41:36.113Z,23.40
2024-01-01T00:42:36.082Z,22.70
2024-01-01T00:43:36.045Z,26.00
2024-01-01T00:44:36.030Z,22.80
2024-01-01T00:45:43.003Z,21.60
2024-01-01T00:46:36.002Z,22.70
2024-01-01T00:47:36.060Z,24.10
2024-01-01T00:48:36.142Z,24.50
2024-01-01T00:49:35.976Z,24.10
2024-01-01T00:50:36.084Z,23.70
2024-01-01T00:51:35.969Z,25.00
2024-01-01T00:52:35.991Z,25.30
2024-01-01T00:53:35.905Z,25.10
2024-01-01T00:54:36.017Z,25.90
2024-01-01T00:55:35.973Z,25.70
2024-01-01T00:56:35.915Z,26.20
2024-01-01T00:57:35.891Z,25.60
2024-01-01T00:58:35.890Z,25.60
2024-01-01T00:59:35.816Z,25.40
2024-01-01T01:00:36.051Z,25.00
2024-01-01T01:01:36.081Z,25.30
2024-01-01T01:02:35.845Z,23.80
2024-01-01T01:03:35.901Z,25.70
2024-01-01T01:04:35.916Z,26.90
2024-01-01T01:05:35.959Z,25.70
2024-01-01T01:06:36.925Z,26.90
2024-01-01T01:07:35.790Z,25.90
2024-01-01T01:08:35.797Z,29.10
2024-01-01T01:09:35.782Z,29.60
2024-01-01T01:10:35.783Z,28.00
2024-01-01T01:11:35.768Z,29.10
2024-01-01T01:12:35.833Z,28.90
2024-01-01T01:13:35.721Z,29.00
2024-01-01T01:14:36.707Z,27.70
2024-01-01T01:15:35.725Z,29.60
2024-01-01T01:16:35.688Z,28.40
2024-01-01T01:17:35.751Z,28.60
2024-01-01T01:18:35.790Z,30.30
2024-01-01T01:19:35.705Z,28.00
2024-01-01T01:20:35.612Z,33.30
2024-01-01T01:21:35.648Z,31.50
2024-01-01T01:22:35.765Z,32.10
2024-01-01T01:23:35.703Z,29.90
2024-01-01T01:24:35.734Z,27.90
2024-01-01T01:25:35.717Z,30.90
2024-01-01T01:26:35.637Z,29.30
2024-01-01T01:27:35.584Z,29.90
2024-01-01T01:28:35.581Z,28.60
2024-01-01T01:29:35.596Z,28.20
2024-01-01T01:30:35.717Z,28.60
2024-01-01T01:31:35.543Z,29.50
2024-01-01T01:32:35.537Z,30.30
2024-01-01T01:33:35.580Z,31.40
2024-01-01T01:34:35.496Z,29.70
2024-01-01T01:35:35.532Z,29.50
2024-01-01T01:36:35.589Z,29.00
2024-01-01T01:37:35.544Z,29.80
2024-01-01T01:38:35.457Z,31.90
2024-01-01T01:39:35.492Z,29.80
2024-01-01T01:40:35.508Z,29.30
2024-01-01T01:41:35.438Z,32.60
2024-01-01T01:42:35.540Z,32.00
2024-01-01T01:43:35.505Z,31.80
2024-01-01T01:44:35.477Z,34.10
2024-01-01T01:45:35.441Z,30.50
2024-01-01T01:46:35.430Z,32.00
2024-01-01T01:47:35.490Z,33.80
2024-01-01T01:48:35.481Z,32.20
2024-01-01T01:49:35.439Z,37.30
2024-01-01T01:50:35.345Z,38.50
2024-01-01T01:51:35.317Z,40.90
2024-01-01T01:52:35.327Z,32.40
2024-01-01T01:53:35.387Z,30.50
2024-01-01T01:54:35.446Z,35.00
2024-01-01T01:55:35.316Z,38.30
2024-01-01T01:56:35.351Z,33.60
2024-01-01T01:57:35.327Z,32.40
2024-01-01T01:58:35.328Z,35.60
2024-01-01T01:59:35.336Z,34.90
2024-01-01T02:00:35.414Z,35.70
2024-01-01T02:01:35.306Z,35.90
2024-01-01T02:02:35.306Z,36.20
2024-01-01T02:03:35.330Z,33.60
2024-01-01T02:04:35.393Z,33.40
2024-01-01T02:05:35.396Z,33.80
2024-01-01T02:06:35.333Z,35.30
2024-01-01T02:07:35.252Z,35.20
2024-01-01T02:08:35.439Z,35.60
2024-01-01T02:09:35.238Z,37.70
2024-01-01T02:10:35.190Z,36.10
2024-01-01T02:11:35.256Z,35.70
2024-01-01T02:12:35.225Z,36.80
2024-01-01T02:13:35.251Z,37.90
2024-01-01T02:14:35.146Z,36.30
2024-01-01T02:15:35.119Z,37.80
2024-01-01T02:16:35.153Z,37.30
2024-01-01T02:17:35.159Z,34.80
2024-01-01T02:18:35.272Z,38.40
2024-01-01T02:19:37.252Z,41.20
2024-01-01T02:20:35.138Z,41.00
2024-01-01T02:21:35.096Z,39.50
2024-01-01T02:22:35.161Z,40.10
2024-01-01T02:23:35.128Z,36.10
2024-01-01T02:24:35.159Z,33.80
2024-01-01T02:25:35.072Z,34.40
2024-01-01T02:26:35.088Z,32.40
2024-01-01T02:27:35.024Z,33.60
2024-01-01T02:28:35.093Z,34.90
2024-01-01T02:29:35.020Z,33.80
2024-01-01T02:30:35.231Z,34.00
2024-01-01T02:31:35.011Z,35.00
2024-01-01T02:32:34.994Z,38.50
2024-01-01T02:33:35.085Z,36.90
2024-01-01T02:34:35.068Z,33.80
2024-01-01T02:35:34.957Z,32.60
2024-01-01T02:36:35.042Z,34.90
2024-01-01T02:37:34.972Z,35.80
2024-01-01T02:38:34.970Z,36.30
2024-01-01T02:39:34.958Z,35.70
2024-01-01T02:40:34.975Z,35.00
2024-01-01T02:41:34.969Z,36.30
2024-01-01T02:42:35.038Z,36.70
2024-01-01T02:43:34.971Z,33.80
2024-01-01T02:44:34.911Z,33.50
2024-01-01T02:45:34.842Z,36.20
2024-01-01T02:46:34.980Z,37.00
2024-01-01T02:47:34.861Z,36.60
2024-01-01T02:48:35.030Z,33.80
2024-01-01T02:49:34.905Z,33.60
2024-01-01T02:50:34.858Z,32.60
2024-01-01T02:51:34.838Z,33.20
2024-01-01T02:52:34.873Z,32.70
2024-01-01T02:53:34.802Z,32.80
2024-01-01T02:54:34.898Z,33.40
2024-01-01T02:55:37.039Z,33.10
2024-01-01T02:56:34.768Z,31.70
2024-01-01T02:57:34.735Z,33.80
2024-01-01T02:58:34.785Z,33.70
2024-01-01T02:59:34.754Z,34.50
2024-01-01T03:00:34.840Z,33.20
2024-01-01T03:01:34.750Z,30.70
2024-01-01T03:02:34.786Z,34.00
2024-01-01T03:03:34.752Z,33.70
2024-01-01T03:04:34.746Z,33.70
2024-01-01T03:05:34.881Z,33.20
2024-01-01T03:06:34.834Z,32.60
2024-01-01T03:07:34.676Z,32.20
2024-01-01T03:08:34.630Z,30.90
2024-01-01T03:09:34.668Z,32.60
2024-01-01T03:10:34.729Z,34.70
2024-01-01T03:11:34.652Z,34.90
2024-01-01T03:12:34.748Z,31.00
2024-01-01T03:13:34.752Z,34.80
2024-01-01T03:14:34.602Z,34.10
2024-01-01T03:15:34.635Z,31.10
2024-01-01T03:16:34.697Z,33.10
2024-01-01T03:17:34.689Z,30.30
2024-01-01T03:18:34.730Z,30.80
2024-01-01T03:19:34.549Z,31.40
2024-01-01T03:20:34.615Z,34.50
2024-01-01T03:21:34.533Z,30.10
2024-01-01T03:22:34.547Z,34.00
2024-01-01T03:23:34.548Z,33.60
2024-01-01T03:24:34.610Z,32.90
2024-01-01T03:25:34.598Z,32.00
2024-01-01T03:26:34.517Z,33.40
2024-01-01T03:27:34.473Z,36.00
2024-01-01T03:28:34.479Z,31.20
2024-01-01T03:29:34.454Z,33.70
2024-01-01T03:30:34.550Z,31.70
2024-01-01T03:31:34.481Z,31.70
2024-01-01T03:32:34.481Z,33.30
2024-01-01T03:33:34.466Z,31.30
2024-01-01T03:34:34.532Z,31.80
2024-01-01T03:35:34.468Z,31.80
2024-01-01T03:36:34.573Z,30.90
2024-01-01T03:37:34.366Z,30.90
2024-01-01T03:38:34.398Z,30.90
2024-01-01T03:39:34.302Z,29.90
2024-01-01T03:40:34.412Z,33.20
2024-01-01T03:41:34.351Z,32.10
2024-01-01T03:42:34.562Z,33.30
2024-01-01T03:43:34.301Z,33.40
2024-01-01T03:44:34.379Z,31.10
2024-01-01T03:45:34.264Z,33.70
2024-01-01T03:46:34.314Z,32.60
2024-01-01T03:47:34.355Z,30.30
2024-01-01T03:48:34.421Z,32.80
2024-01-01T03:49:34.291Z,33.10
2024-01-01T03:50:34.232Z,32.80
2024-01-01T03:51:34.269Z,31.90
2024-01-01T03:52:34.305Z,33.00
2024-01-01T03:53:34.250Z,32.00
2024-01-01T03:54:34.286Z,35.10
2024-01-01T03:55:34.325Z,32.70
2024-01-01T03:56:34.259Z,34.20
2024-01-01T03:57:34.180Z,31.50
2024-01-01T03:58:34.263Z,34.70
2024-01-01T03:59:34.184Z,35.40
2024-01-01T04:00:34.260Z,35.90
2024-01-01T04:01:34.194Z,34.10
2024-01-01T04:02:34.239Z,31.90
2024-01-01T04:03:34.188Z,33.40
2024-01-01T04:04:34.243Z,36.70
2024-01-01T04:05:34.286Z,36.50
2024-01-01T04:06:34.210Z,33.80
2024-01-01T04:07:34.137Z,35.20
2024-01-01T04:08:34.029Z,36.00
2024-01-01T04:09:34.161Z,36.50
2024-01-01T04:10:34.086Z,36.80
2024-01-01T04:11:34.079Z,35.10
2024-01-01T04:12:34.151Z,36.70
2024-01-01T04:13:34.050Z,37.40
2024-01-01T04:14:34.152Z,37.90
2024-01-01T04:15:34.062Z,39.20
2024-01-01T04:16:34.068Z,37.90
2024-01-01T04:17:34.249Z,37.60
2024-01-01T04:18:34.239Z,35.10
2024-01-01T04:19:34.037Z,33.60
2024-01-01T04:20:34.070Z,36.10
2024-01-01T04:21:34.021Z,34.00
2024-01-01T04:22:33.984Z,33.60
2024-01-01T04:23:33.972Z,32.70
2024-01-01T04:24:34.112Z,34.70
2024-01-01T04:25:33.992Z,35.80
2024-01-01T04:26:33.956Z,31.50
2024-01-01T04:27:33.930Z,31.30
2024-01-01T04:28:33.970Z,35.20
2024-01-01T04:29:33.925Z,32.40
2024-01-01T04:30:33.992Z,33.40
2024-01-01T04:31:34.122Z,31.00
2024-01-01T04:32:33.904Z,28.50
2024-01-01T04:33:33.936Z,33.20
2024-01-01T04:34:33.913Z,29.30
2024-01-01T04:35:33.933Z,32.70
2024-01-01T04:36:33.984Z,30.50
2024-01-01T04:37:33.998Z,28.40
2024-01-01T04:38:33.826Z,26.80
2024-01-01T04:39:33.761Z,27.60
2024-01-01T04:40:33.885Z,28.50
2024-01-01T04:41:33.808Z,26.50
2024-01-01T04:42:33.935Z,28.20
2024-01-01T04:43:33.797Z,24.80
2024-01-01T04:44:33.739Z,25.80
2024-01-01T04:45:33.786Z,29.20
2024-01-01T04:46:33.838Z,25.20
2024-01-01T04:47:33.743Z,27.60
2024-01-01T04:48:34.003Z,26.60
2024-01-01T04:49:33.714Z,26.30
2024-01-01T04:50:33.687Z,26.30
2024-01-01T04:51:33.721Z,29.60
2024-01-01T04:52:33.775Z,30.00
2024-01-01T04:53:33.701Z,24.10
2024-01-01T04:54:33.782Z,28.50
2024-01-01T04:55:33.697Z,31.80
2024-01-01T04:56:33.587Z,32.10
2024-01-01T04:57:33.622Z,32.90
2024-01-01T04:58:33.740Z,27.90
2024-01-01T04:59:33.652Z,31.70
2024-01-01T05:00:33.701Z,25.60
2024-01-01T05:01:33.702Z,28.20
2024-01-01T05:02:33.575Z,28.80
2024-01-01T05:03:33.612Z,29.80
2024-01-01T05:04:33.687Z,27.70
2024-01-01T05:05:33.604Z,30.10
2024-01-01T05:06:33.710Z,28.60
2024-01-01T05:07:33.687Z,30.50
2024-01-01T05:08:33.641Z,32.30
2024-01-01T05:09:33.561Z,31.40
2024-01-01T05:10:33.634Z,30.90
2024-01-01T05:11:33.508Z,29.00
2024-01-01T05:12:33.589Z,30.80
2024-01-01T05:13:33.531Z,32.40
2024-01-01T05:14:33.482Z,34.50
2024-01-01T05:15:33.564Z,32.80
2024-01-01T05:16:33.590Z,30.10
2024-01-01T05:17:33.567Z,30.20
2024-01-01T05:18:33.706Z,33.00
2024-01-01T05:19:33.484Z,31.10
2024-01-01T05:20:33.488Z,32.30
2024-01-01T05:21:33.392Z,33.90
2024-01-01T05:22:33.418Z,34.50
2024-01-01T05:23:33.417Z,29.80
2024-01-01T05:24:33.559Z,29.70
2024-01-01T05:25:33.382Z,29.70
2024-01-01T05:26:33.388Z,31.10
2024-01-01T05:27:33.332Z,32.50
2024-01-01T05:28:33.349Z,29.60
2024-01-01T05:29:33.402Z,28.30
2024-01-01T05:30:33.528Z,28.00
2024-01-01T05:31:33.325Z,28.60
2024-01-01T05:32:33.500Z,30.70
2024-01-01T05:33:33.430Z,33.10
2024-01-01T05:34:33.254Z,32.20
2024-01-01T05:35:33.261Z,36.00
2024-01-01T05:36:33.346Z,35.00
2024-01-01T05:37:33.291Z,33.40
2024-01-01T05:38:33.321Z,31.60
2024-01-01T05:39:33.287Z,30.20
2024-01-01T05:40:33.230Z,27.60
2024-01-01T05:41:33.244Z,32.80
2024-01-01T05:42:33.349Z,31.30
2024-01-01T05:43:33.214Z,34.80
2024-01-01T05:44:33.178Z,30.40
2024-01-01T05:45:33.264Z,35.40
2024-01-01T05:46:33.201Z,34.70
2024-01-01T05:47:33.332Z,34.90
2024-01-01T05:48:40.128Z,34.80
2024-01-01T05:49:33.269Z,44.50
2024-01-01T05:50:33.189Z,57.40
2024-01-01T05:51:33.190Z,38.30
2024-01-01T05:52:33.160Z,43.10
2024-01-01T05:53:33.191Z,44.00
2024-01-01T05:54:33.239Z,43.40
2024-01-01T05:55:33.146Z,46.00
2024-01-01T05:56:33.154Z,36.00
2024-01-01T05:57:33.087Z,35.80
2024-01-01T05:58:33.099Z,35.10
2024-01-01T05:59:33.120Z,34.50
2024-01-01T06:00:33.217Z,35.10
2024-01-01T06:01:33.065Z,33.60
2024-01-01T06:02:34.997Z,35.10
2024-01-01T06:03:33.038Z,34.20
2024-01-01T06:04:33.109Z,32.70
2024-01-01T06:05:33.093Z,36.70
2024-01-01T06:06:33.132Z,34.20
2024-01-01T06:07:33.009Z,33.80
2024-01-01T06:08:32.918Z,35.40
2024-01-01T06:09:32.965Z,32.30
2024-01-01T06:10:32.991Z,32.30
2024-01-01T06:11:33.021Z,30.20
2024-01-01T06:12:33.070Z,32.00
2024-01-01T06:13:32.941Z,30.00
2024-01-01T06:14:32.905Z,29.40
2024-01-01T06:15:32.939Z,29.00
2024-01-01T06:16:32.982Z,29.50
2024-01-01T06:17:33.045Z,26.60
2024-01-01T06:18:33.098Z,28.10
2024-01-01T06:19:32.930Z,25.80
2024-01-01T06:20:32.904Z,26.10
2024-01-01T06:21:32.849Z,28.80
2024-01-01T06:22:32.901Z,25.10
2024-01-01T06:23:32.903Z,26.50
2024-01-01T06:24:32.993Z,29.50
2024-01-01T06:25:32.909Z,25.90
2024-01-01T06:26:32.806Z,23.80
2024-01-01T06:27:32.823Z,21.00
2024-01-01T06:28:35.695Z,24.50
2024-01-01T06:29:32.867Z,21.10
2024-01-01T06:30:32.884Z,23.70
2024-01-01T06:31:32.739Z,22.20
2024-01-01T06:32:32.799Z,23.00
2024-01-01T06:33:32.907Z,20.00
2024-01-01T06:34:32.829Z,21.40
2024-01-01T06:35:32.820Z,20.10
2024-01-01T06:36:32.871Z,19.20
2024-01-01T06:37:32.771Z,18.10
2024-01-01T06:38:32.788Z,18.10
2024-01-01T06:39:32.708Z,19.10
2024-01-01T06:40:32.671Z,19.60
2024-01-01T06:41:32.761Z,20.30
2024-01-01T06:42:32.845Z,18.80
2024-01-01T06:43:32.655Z,18.20
2024-01-01T06:44:32.664Z,20.30
2024-01-01T06:45:32.717Z,18.00
2024-01-01T06:46:32.661Z,18.40
2024-01-01T06:47:32.781Z,18.30
2024-01-01T06:48:32.879Z,18.70
2024-01-01T06:49:32.644Z,17.80
2024-01-01T06:50:32.550Z,16.70
2024-01-01T06:51:32.624Z,17.00
2024-01-01T06:52:32.629Z,17.40
2024-01-01T06:53:32.558Z,18.80
2024-01-01T06:54:32.717Z,17.80
2024-01-01T06:55:32.582Z,17.00
2024-01-01T06:56:32.592Z,18.50
2024-01-01T06:57:32.581Z,19.30
2024-01-01T06:58:32.541Z,19.10
2024-01-01T06:59:32.620Z,18.80
2024-01-01T07:00:33.757Z,17.70
2024-01-01T07:01:32.536Z,17.90
2024-01-01T07:02:32.541Z,18.20
2024-01-01T07:03:32.533Z,18.30
2024-01-01T07:04:32.459Z,17.80
2024-01-01T07:05:32.621Z,14.50
2024-01-01T07:06:32.614Z,14.80
2024-01-01T07:07:32.426Z,17.90
2024-01-01T07:08:32.484Z,15.50
2024-01-01T07:09:32.426Z,15.80
2024-01-01T07:10:32.393Z,15.50
2024-01-01T07:11:32.450Z,15.00
2024-01-01T07:12:32.504Z,14.60
2024-01-01T07:13:32.391Z,13.70
2024-01-01T07:14:32.405Z,14.60
2024-01-01T07:15:32.365Z,13.40
2024-01-01T07:16:32.331Z,14.60
2024-01-01T07:17:32.458Z,14.50
2024-01-01T07:18:32.457Z,13.70
2024-01-01T07:19:32.321Z,14.10
2024-01-01T07:20:32.284Z,14.30
2024-01-01T07:21:32.315Z,15.30
2024-01-01T07:22:32.255Z,12.90
2024-01-01T07:23:32.288Z,11.90
2024-01-01T07:24:32.371Z,12.50
2024-01-01T07:25:32.224Z,11.60
2024-01-01T07:26:32.228Z,11.70
2024-01-01T07:27:32.245Z,11.60
2024-01-01T07:28:32.255Z,11.30
2024-01-01T07:29:32.276Z,12.50
2024-01-01T07:30:32.352Z,11.80
2024-01-01T07:31:32.266Z,11.70
2024-01-01T07:32:32.309Z,12.90
2024-01-01T07:33:32.263Z,11.10
2024-01-01T07:34:32.215Z,11.10
2024-01-01T07:35:32.161Z,11.90
2024-01-01T07:36:32.255Z,12.00
2024-01-01T07:37:32.117Z,11.80
2024-01-01T07:38:32.283Z,10.80
2024-01-01T07:39:32.162Z,10.30
2024-01-01T07:40:32.141Z,10.20
2024-01-01T07:41:32.175Z,10.10
2024-01-01T07:42:32.201Z,10.70
2024-01-01T07:43:32.130Z,10.90
2024-01-01T07:44:32.821Z,11.20
2024-01-01T07:45:32.110Z,10.50
2024-01-01T07:46:32.090Z,10.90
2024-01-01T07:47:32.210Z,11.00
2024-01-01T07:48:32.299Z,10.80
2024-01-01T07:49:32.120Z,10.40
2024-01-01T07:50:32.208Z,9.90
2024-01-01T07:51:32.013Z,9.90
2024-01-01T07:52:32.026Z,10.90
2024-01-01T07:53:32.058Z,12.00
2024-01-01T07:54:32.098Z,11.20
2024-01-01T07:55:32.018Z,10.40
2024-01-01T07:56:32.012Z,11.90
2024-01-01T07:57:31.980Z,10.80
2024-01-01T07:58:32.006Z,11.60
2024-01-01T07:59:31.994Z,9.80
2024-01-01T08:00:32.012Z,10.60
2024-01-01T08:01:31.920Z,10.50
2024-01-01T08:02:32.016Z,11.00
2024-01-01T08:03:31.976Z,9.90
2024-01-01T08:04:31.903Z,8.90
2024-01-01T08:05:31.917Z,9.40
2024-01-01T08:06:31.951Z,8.90
2024-01-01T08:07:31.916Z,9.20
2024-01-01T08:08:32.012Z,9.10
2024-01-01T08:09:31.918Z,8.90
2024-01-01T08:10:31.887Z,8.50
2024-01-01T08:11:31.879Z,7.90
2024-01-01T08:12:31.955Z,8.60
2024-01-01T08:13:31.795Z,8.60
2024-01-01T08:14:31.868Z,8.90
2024-01-01T08:15:31.827Z,8.50
2024-01-01T08:16:31.808Z,8.40
2024-01-01T08:17:31.789Z,8.30
2024-01-01T08:18:31.946Z,8.00
2024-01-01T08:19:31.892Z,8.20
2024-01-01T08:20:31.846Z,8.10
2024-01-01T08:21:31.800Z,8.70
2024-01-01T08:22:31.725Z,8.20
2024-01-01T08:23:31.804Z,8.10
2024-01-01T08:24:31.813Z,7.30
2024-01-01T08:25:31.754Z,7.40
2024-01-01T08:26:31.690Z,7.40
2024-01-01T08:27:31.670Z,7.60
2024-01-01T08:28:31.707Z,6.80
2024-01-01T08:29:33.562Z,7.50
2024-01-01T08:30:31.771Z,7.70
2024-01-01T08:31:31.681Z,7.30
2024-01-01T08:32:31.703Z,7.00
2024-01-01T08:33:31.730Z,7.10
2024-01-01T08:34:31.592Z,6.80
2024-01-01T08:35:31.679Z,6.00
2024-01-01T08:36:31.670Z,6.40
2024-01-01T08:37:31.588Z,6.70
2024-01-01T08:38:31.647Z,6.50
2024-01-01T08:39:31.616Z,6.60
2024-01-01T08:40:31.545Z,6.30
2024-01-01T08:41:31.573Z,5.90
2024-01-01T08:42:31.674Z,6.10
2024-01-01T08:43:31.545Z,6.20
2024-01-01T08:44:31.548Z,5.40
2024-01-01T08:45:31.553Z,6.40
2024-01-01T08:46:31.528Z,5.90
2024-01-01T08:47:31.552Z,5.80
2024-01-01T08:48:31.680Z,5.90
2024-01-01T08:49:31.600Z,5.70
2024-01-01T08:50:31.558Z,5.90
2024-01-01T08:51:31.476Z,6.10
2024-01-01T08:52:31.446Z,6.10
2024-01-01T08:53:34.125Z,5.90
2024-01-01T08:54:31.508Z,5.80
2024-01-01T08:55:31.389Z,6.10
2024-01-01T08:56:31.440Z,6.10
2024-01-01T08:57:31.433Z,5.80
2024-01-01T08:58:31.502Z,5.80
2024-01-01T08:59:31.405Z,5.90
2024-01-01T09:00:31.524Z,6.00
2024-01-01T09:01:31.398Z,5.80
2024-01-01T09:02:31.374Z,6.70
2024-01-01T09:03:31.365Z,6.00
2024-01-01T09:04:31.368Z,6.80
2024-01-01T09:05:31.419Z,6.20
2024-01-01T09:06:31.397Z,6.80
2024-01-01T09:07:31.314Z,5.60
2024-01-01T09:08:31.439Z,6.20
2024-01-01T09:09:31.316Z,6.30
2024-01-01T09:10:31.307Z,6.00
2024-01-01T09:11:31.328Z,6.10
2024-01-01T09:12:31.389Z,5.40
2024-01-01T09:13:31.264Z,6.70
2024-01-01T09:14:31.312Z,6.10
2024-01-01T09:15:31.210Z,6.10
2024-01-01T09:16:31.222Z,6.60
2024-01-01T09:17:31.413Z,6.50
2024-01-01T09:18:31.409Z,7.60
2024-01-01T09:19:31.250Z,6.00
2024-01-01T09:20:31.261Z,6.30
2024-01-01T09:21:31.224Z,6.40
2024-01-01T09:22:31.180Z,6.50
2024-01-01T09:23:31.163Z,6.40
2024-01-01T09:24:31.245Z,6.50
2024-01-01T09:25:31.136Z,6.50
2024-01-01T09:26:31.317Z,6.60
2024-01-01T09:27:31.132Z,5.80
2024-01-01T09:28:31.146Z,6.40
2024-01-01T09:29:31.132Z,6.10
2024-01-01T09:30:31.248Z,6.20
2024-01-01T09:31:31.098Z,6.30
2024-01-01T09:32:33.445Z,6.40
2024-01-01T09:33:31.153Z,6.40
2024-01-01T09:34:31.000Z,6.40
2024-01-01T09:35:31.144Z,6.40
2024-01-01T09:36:31.160Z,6.50
2024-01-01T09:37:31.095Z,6.40
2024-01-01T09:38:31.130Z,6.40
2024-01-01T09:39:31.102Z,6.80
2024-01-01T09:40:31.052Z,6.10
2024-01-01T09:41:31.081Z,6.40
2024-01-01T09:42:31.072Z,6.10
2024-01-01T09:43:31.011Z,5.90
2024-01-01T09:44:30.976Z,6.70
2024-01-01T09:45:31.034Z,6.60
2024-01-01T09:46:31.020Z,6.10
2024-01-01T09:47:31.005Z,6.30
2024-01-01T09:48:31.079Z,6.00
2024-01-01T09:49:31.010Z,7.10
2024-01-01T09:50:30.975Z,6.40
2024-01-01T09:51:30.857Z,6.60
2024-01-01T09:52:30.851Z,6.00
2024-01-01T09:53:30.946Z,6.30
2024-01-01T09:54:30.997Z,6.00
2024-01-01T09:55:30.862Z,6.20
2024-01-01T09:56:33.180Z,6.40
2024-01-01T09:57:30.886Z,6.80
2024-01-01T09:58:30.836Z,6.70
2024-01-01T09:59:30.867Z,6.70
2024-01-01T10:00:30.974Z,6.90
2024-01-01T10:01:30.833Z,6.80
2024-01-01T10:02:30.836Z,6.90
2024-01-01T10:03:30.841Z,6.30
2024-01-01T10:04:30.810Z,6.50
2024-01-01T10:05:30.821Z,6.50
2024-01-01T10:06:30.870Z,6.30
2024-01-01T10:07:30.759Z,6.60
2024-01-01T10:08:30.775Z,6.80
2024-01-01T10:09:30.757Z,6.50
2024-01-01T10:10:30.717Z,7.10
2024-01-01T10:11:30.765Z,7.30
2024-01-01T10:12:30.769Z,6.90
2024-01-01T10:13:30.741Z,6.70
2024-01-01T10:14:30.794Z,6.70
2024-01-01T10:15:30.685Z,7.60
2024-01-01T10:16:30.669Z,6.80
2024-01-01T10:17:30.930Z,6.90
2024-01-01T10:18:31.409Z,7.50
2024-01-01T10:19:30.768Z,6.60
2024-01-01T10:20:30.676Z,7.10
2024-01-01T10:21:30.728Z,6.90
2024-01-01T10:22:30.636Z,6.60
2024-01-01T10:23:30.732Z,6.90
2024-01-01T10:24:33.269Z,6.50
2024-01-01T10:25:30.599Z,7.30
2024-01-01T10:26:30.602Z,6.80
2024-01-01T10:27:30.598Z,6.40
2024-01-01T10:28:30.577Z,6.70
2024-01-01T10:29:30.570Z,7.00
2024-01-01T10:30:30.667Z,6.90
2024-01-01T10:31:30.561Z,6.80
2024-01-01T10:32:30.580Z,6.70
2024-01-01T10:33:30.757Z,6.60
2024-01-01T10:34:30.561Z,6.30
2024-01-01T10:35:30.533Z,7.10
2024-01-01T10:36:30.605Z,6.50
2024-01-01T10:37:30.511Z,6.60
2024-01-01T10:38:30.470Z,6.20
2024-01-01T10:39:30.438Z,6.10
2024-01-01T10:40:30.460Z,6.10
2024-01-01T10:41:30.433Z,6.70
2024-01-01T10:42:30.516Z,6.30
2024-01-01T10:43:30.458Z,6.20
2024-01-01T10:44:30.510Z,5.70
2024-01-01T10:45:30.434Z,6.10
2024-01-01T10:46:30.398Z,6.50
2024-01-01T10:47:30.481Z,5.60
2024-01-01T10:48:31.220Z,6.30
2024-01-01T10:49:30.376Z,7.50
2024-01-01T10:50:30.470Z,6.20
2024-01-01T10:51:30.333Z,6.50
2024-01-01T10:52:30.353Z,5.90
2024-01-01T10:53:30.400Z,6.20
2024-01-01T10:54:30.387Z,5.40
2024-01-01T10:55:30.341Z,6.10
2024-01-01T10:56:30.389Z,6.20
2024-01-01T10:57:30.343Z,6.00
2024-01-01T10:58:30.285Z,6.30
2024-01-01T10:59:30.306Z,5.90
2024-01-01T11:00:30.415Z,5.80
2024-01-01T11:01:30.232Z,5.40
2024-01-01T11:02:30.356Z,6.00
2024-01-01T11:03:30.259Z,5.40
2024-01-01T11:04:30.268Z,6.30
2024-01-01T11:05:30.264Z,6.00
2024-01-01T11:06:30.295Z,6.10
2024-01-01T11:07:30.146Z,5.40
2024-01-01T11:08:30.265Z,6.10
2024-01-01T11:09:30.183Z,5.80
2024-01-01T11:10:30.186Z,6.20
2024-01-01T11:11:30.281Z,5.90
2024-01-01T11:12:30.294Z,6.40
2024-01-01T11:13:31.540Z,6.00
2024-01-01T11:14:30.216Z,6.10
2024-01-01T11:15:30.152Z,6.40
2024-01-01T11:16:30.137Z,6.00
2024-01-01T11:17:30.281Z,6.50
2024-01-01T11:18:30.390Z,6.40
2024-01-01T11:19:30.150Z,6.00
2024-01-01T11:20:30.147Z,7.10
2024-01-01T11:21:30.124Z,6.30
2024-01-01T11:22:30.076Z,6.20
2024-01-01T11:23:30.091Z,6.20
2024-01-01T11:24:36.652Z,5.90
2024-01-01T11:25:30.065Z,5.80
2024-01-01T11:26:30.077Z,6.10
2024-01-01T11:27:30.004Z,5.80
2024-01-01T11:28:30.049Z,5.70
2024-01-01T11:29:30.126Z,6.40
2024-01-01T11:30:30.151Z,5.90
2024-01-01T11:31:30.143Z,6.60
2024-01-01T11:32:30.106Z,5.60
2024-01-01T11:33:30.068Z,6.30
2024-01-01T11:34:32.978Z,6.00
2024-01-01T11:35:30.157Z,6.50
2024-01-01T11:36:30.028Z,5.80
2024-01-01T11:37:30.296Z,5.50
2024-01-01T11:38:29.965Z,6.00
2024-01-01T11:39:30.293Z,6.00
2024-01-01T11:40:29.913Z,6.20
2024-01-01T11:41:29.865Z,5.40
2024-01-01T11:42:29.953Z,6.40
2024-01-01T11:43:29.862Z,6.40
2024-01-01T11:44:29.879Z,5.60
2024-01-01T11:45:29.841Z,6.10
2024-01-01T11:46:29.788Z,6.10
2024-01-01T11:47:29.933Z,6.20
2024-01-01T11:48:33.094Z,6.10
2024-01-01T11:49:29.913Z,6.60
2024-01-01T11:50:29.977Z,6.50
2024-01-01T11:51:29.714Z,6.00
2024-01-01T11:52:29.804Z,7.10
2024-01-01T11:53:29.834Z,6.20
2024-01-01T11:54:29.848Z,6.50
2024-01-01T11:55:29.786Z,6.40
2024-01-01T11:56:29.723Z,6.80
2024-01-01T11:57:29.713Z,6.90
2024-01-01T11:58:29.691Z,6.50
2024-01-01T11:59:29.806Z,6.80
2024-01-01T12:00:29.905Z,8.30
2024-01-01T12:01:29.665Z,7.60
2024-01-01T12:02:29.701Z,6.50
2024-01-01T12:03:29.677Z,7.20
2024-01-01T12:04:29.764Z,6.30
2024-01-01T12:05:29.839Z,5.90
2024-01-01T12:06:29.837Z,5.40
2024-01-01T12:07:29.631Z,6.20
2024-01-01T12:08:29.654Z,5.50
2024-01-01T12:09:29.647Z,6.10
2024-01-01T12:10:29.676Z,5.50
2024-01-01T12:11:29.626Z,5.70
2024-01-01T12:12:29.698Z,5.50
2024-01-01T12:13:29.557Z,5.80
2024-01-01T12:14:29.525Z,5.80
2024-01-01T12:15:29.530Z,5.20
2024-01-01T12:16:29.549Z,5.30
2024-01-01T12:17:29.598Z,5.00
2024-01-01T12:18:29.664Z,5.60
2024-01-01T12:19:29.518Z,5.00
2024-01-01T12:20:29.697Z,5.10
2024-01-01T12:21:29.498Z,5.00
2024-01-01T12:22:29.482Z,5.10
2024-01-01T12:23:29.555Z,4.90
2024-01-01T12:24:29.526Z,4.60
2024-01-01T12:25:29.427Z,4.60
2024-01-01T12:26:29.423Z,4.70
2024-01-01T12:27:31.299Z,5.00
2024-01-01T12:28:29.462Z,4.90
2024-01-01T12:29:29.463Z,5.10
2024-01-01T12:30:29.616Z,5.00
2024-01-01T12:31:29.405Z,6.00
2024-01-01T12:32:29.476Z,4.90
2024-01-01T12:33:29.693Z,5.80
2024-01-01T12:34:29.454Z,5.50
2024-01-01T12:35:29.609Z,5.60
2024-01-01T12:36:29.427Z,5.10
2024-01-01T12:37:29.367Z,5.70
2024-01-01T12:38:29.366Z,5.40
2024-01-01T12:39:29.328Z,5.60
2024-01-01T12:40:29.354Z,5.60
2024-01-01T12:41:29.340Z,6.20
2024-01-01T12:42:29.399Z,5.20
2024-01-01T12:43:29.246Z,5.50
2024-01-01T12:44:29.318Z,5.50
2024-01-01T12:45:31.662Z,5.20
2024-01-01T12:46:29.265Z,5.90
2024-01-01T12:47:29.321Z,6.20
2024-01-01T12:48:29.372Z,5.00
2024-01-01T12:49:29.263Z,4.80
2024-01-01T12:50:29.399Z,4.40
2024-01-01T12:51:29.186Z,5.40
2024-01-01T12:52:29.195Z,4.90
2024-01-01T12:53:29.271Z,4.70
2024-01-01T12:54:29.255Z,4.70
2024-01-01T12:55:29.155Z,4.40
2024-01-01T12:56:29.185Z,5.10
2024-01-01T12:57:29.155Z,4.90
2024-01-01T12:58:29.130Z,4.80
2024-01-01T12:59:29.189Z,4.80
2024-01-01T13:00:29.273Z,4.50
2024-01-01T13:01:29.107Z,5.10
2024-01-01T13:02:29.117Z,4.10